Terminal Aerodrome Forecast
Issued by NWS

Home | Current Version | Previous Version | Text Only | Print | Product List | Glossary On
Versions: 1 2 3 4 5 6 7 8 9 10 11 12 13 14 15 16 17
293
FTUS45 KRIW 242325
TAFBPI
TAF
KBPI 242325Z 2500/2524 VRB06KT P6SM SCT080 BKN200
     FM250300 VRB04KT P6SM BKN080
     FM251100 VRB04KT P6SM VCSH SCT030 BKN050
     FM251600 34007KT 6SM -SN SCT015 BKN025
     FM252000 34009KT P6SM VCSH SCT025 BKN040=

USA.gov is the U.S. government's official web portal to all federal, state and local government web resources and services.